createdAt,value
2022-10-21T00:00:26.959Z,964.16
2022-10-21T00:01:27.002Z,964.15
2022-10-21T00:02:26.943Z,964.10
2022-10-21T00:03:26.947Z,964.11
2022-10-21T00:04:26.891Z,964.18
2022-10-21T00:05:26.891Z,964.20
2022-10-21T00:06:26.906Z,964.21
2022-10-21T00:07:26.868Z,964.22
2022-10-21T00:08:26.991Z,964.24
2022-10-21T00:09:26.968Z,964.23
2022-10-21T00:10:26.911Z,964.21
2022-10-21T00:11:26.827Z,964.13
2022-10-21T00:12:26.846Z,964.07
2022-10-21T00:13:26.824Z,964.01
2022-10-21T00:14:26.782Z,964.00
2022-10-21T00:15:26.821Z,964.00
2022-10-21T00:16:26.769Z,964.00
2022-10-21T00:17:26.776Z,964.08
2022-10-21T00:18:26.773Z,964.09
2022-10-21T00:19:26.733Z,964.17
2022-10-21T00:20:26.744Z,964.26
2022-10-21T00:21:26.708Z,964.37
2022-10-21T00:22:26.697Z,964.40
2022-10-21T00:23:26.715Z,964.34
2022-10-21T00:24:26.685Z,964.34
2022-10-21T00:25:26.668Z,964.42
2022-10-21T00:26:26.652Z,964.44
2022-10-21T00:27:26.640Z,964.47
2022-10-21T00:28:26.661Z,964.49
2022-10-21T00:29:26.630Z,964.45
2022-10-21T00:30:26.615Z,964.43
2022-10-21T00:31:26.598Z,964.40
2022-10-21T00:32:26.617Z,964.39
2022-10-21T00:33:26.583Z,964.39
2022-10-21T00:34:30.644Z,964.45
2022-10-21T00:35:26.559Z,964.40
2022-10-21T00:36:26.544Z,964.36
2022-10-21T00:37:26.543Z,964.34
2022-10-21T00:38:26.517Z,964.33
2022-10-21T00:39:26.518Z,964.31
2022-10-21T00:40:26.488Z,964.36
2022-10-21T00:41:26.497Z,964.39
2022-10-21T00:42:26.470Z,964.46
2022-10-21T00:43:26.488Z,964.45
2022-10-21T00:44:26.495Z,964.49
2022-10-21T00:45:26.452Z,964.51
2022-10-21T00:46:26.421Z,964.54
2022-10-21T00:47:26.431Z,964.54
2022-10-21T00:48:26.410Z,964.44
2022-10-21T00:49:26.428Z,964.48
2022-10-21T00:50:26.390Z,964.46
2022-10-21T00:51:26.384Z,964.47
2022-10-21T00:52:26.369Z,964.52
2022-10-21T00:53:26.352Z,964.56
2022-10-21T00:54:26.368Z,964.47
2022-10-21T00:55:26.334Z,964.35
2022-10-21T00:56:26.316Z,964.28
2022-10-21T00:57:26.301Z,964.24
2022-10-21T00:58:26.301Z,964.23
2022-10-21T00:59:26.306Z,964.21
2022-10-21T01:00:26.301Z,964.26
2022-10-21T01:01:26.403Z,964.25
2022-10-21T01:02:26.270Z,964.19
2022-10-21T01:03:26.276Z,964.21
2022-10-21T01:04:26.235Z,964.16
2022-10-21T01:05:26.224Z,964.10
2022-10-21T01:06:26.230Z,964.14
2022-10-21T01:07:26.206Z,964.22
2022-10-21T01:08:26.203Z,964.24
2022-10-21T01:09:26.207Z,964.23
2022-10-21T01:10:26.164Z,964.27
2022-10-21T01:11:26.183Z,964.22
2022-10-21T01:12:26.133Z,964.22
2022-10-21T01:13:26.182Z,964.20
2022-10-21T01:14:26.110Z,964.13
2022-10-21T01:15:26.110Z,964.13
2022-10-21T01:16:26.102Z,964.13
2022-10-21T01:17:43.643Z,964.13
2022-10-21T01:18:27.102Z,964.14
2022-10-21T01:19:26.070Z,964.23
2022-10-21T01:20:26.043Z,964.15
2022-10-21T01:21:26.053Z,964.18
2022-10-21T01:22:26.045Z,964.13
2022-10-21T01:23:26.048Z,964.11
2022-10-21T01:24:26.015Z,964.09
2022-10-21T01:25:26.007Z,964.06
2022-10-21T01:26:25.978Z,964.10
2022-10-21T01:27:25.982Z,964.15
2022-10-21T01:28:25.978Z,964.11
2022-10-21T01:29:25.989Z,964.17
2022-10-21T01:30:25.937Z,964.10
2022-10-21T01:31:25.922Z,964.14
2022-10-21T01:32:25.918Z,964.10
2022-10-21T01:33:25.926Z,964.11
2022-10-21T01:34:25.926Z,964.08
2022-10-21T01:35:25.882Z,964.04
2022-10-21T01:36:25.877Z,963.96
2022-10-21T01:37:25.920Z,963.96
2022-10-21T01:38:25.867Z,963.92
2022-10-21T01:39:25.898Z,963.87
2022-10-21T01:40:25.861Z,963.79
2022-10-21T01:41:25.822Z,963.77
2022-10-21T01:42:25.827Z,963.79
2022-10-21T01:43:25.790Z,963.72
2022-10-21T01:44:25.783Z,963.73
2022-10-21T01:45:25.804Z,963.75
2022-10-21T01:46:25.798Z,963.81
2022-10-21T01:47:25.762Z,963.72
2022-10-21T01:48:25.764Z,963.77
2022-10-21T01:49:25.747Z,963.71
2022-10-21T01:50:25.723Z,963.68
2022-10-21T01:52:25.717Z,963.62
2022-10-21T01:53:25.691Z,963.63
2022-10-21T01:54:25.696Z,963.62
2022-10-21T01:55:25.681Z,963.68
2022-10-21T01:56:25.669Z,963.68
2022-10-21T01:57:25.670Z,963.65
2022-10-21T01:58:25.634Z,963.64
2022-10-21T01:59:25.638Z,963.59
2022-10-21T02:01:25.694Z,963.61
2022-10-21T02:02:25.602Z,963.58
2022-10-21T02:03:25.598Z,963.53
2022-10-21T02:04:25.571Z,963.49
2022-10-21T02:05:25.599Z,963.48
2022-10-21T02:06:25.546Z,963.46
2022-10-21T02:07:25.532Z,963.44
2022-10-21T02:08:25.540Z,963.49
2022-10-21T02:09:25.538Z,963.53
2022-10-21T02:10:25.544Z,963.58
2022-10-21T02:11:25.517Z,963.57
2022-10-21T02:12:25.484Z,963.62
2022-10-21T02:13:25.485Z,963.65
2022-10-21T02:14:25.481Z,963.65
2022-10-21T02:15:25.485Z,963.65
2022-10-21T02:16:25.437Z,963.68
2022-10-21T02:17:25.411Z,963.62
2022-10-21T02:18:25.426Z,963.60
2022-10-21T02:19:25.470Z,963.59
2022-10-21T02:20:25.410Z,963.60
2022-10-21T02:21:25.398Z,963.55
2022-10-21T02:22:25.389Z,963.50
2022-10-21T02:23:25.364Z,963.48
2022-10-21T02:24:25.425Z,963.47
2022-10-21T02:25:25.334Z,963.48
2022-10-21T02:26:25.341Z,963.42
2022-10-21T02:27:25.331Z,963.38
2022-10-21T02:28:25.292Z,963.37
2022-10-21T02:29:25.301Z,963.38
2022-10-21T02:30:25.299Z,963.41
2022-10-21T02:31:25.288Z,963.36
2022-10-21T02:32:25.255Z,963.40
2022-10-21T02:33:25.248Z,963.41
2022-10-21T02:34:25.228Z,963.36
2022-10-21T02:35:25.228Z,963.35
2022-10-21T02:36:25.230Z,963.39
2022-10-21T02:37:25.240Z,963.34
2022-10-21T02:38:25.193Z,963.33
2022-10-21T02:39:25.166Z,963.31
2022-10-21T02:40:25.196Z,963.36
2022-10-21T02:41:25.149Z,963.37
2022-10-21T02:42:25.163Z,963.41
2022-10-21T02:43:25.170Z,963.33
2022-10-21T02:44:25.134Z,963.35
2022-10-21T02:45:25.138Z,963.35
2022-10-21T02:46:25.103Z,963.31
2022-10-21T02:47:25.106Z,963.27
2022-10-21T02:48:25.105Z,963.22
2022-10-21T02:49:25.092Z,963.19
2022-10-21T02:50:25.065Z,963.21
2022-10-21T02:51:25.033Z,963.20
2022-10-21T02:52:25.042Z,963.22
2022-10-21T02:53:25.064Z,963.19
2022-10-21T02:54:25.007Z,963.14
2022-10-21T02:55:25.002Z,963.11
2022-10-21T02:56:25.023Z,963.14
2022-10-21T02:57:24.973Z,963.11
2022-10-21T02:58:25.023Z,963.15
2022-10-21T02:59:24.976Z,963.14
2022-10-21T03:00:25.559Z,963.16
2022-10-21T03:01:25.012Z,963.15
2022-10-21T03:02:24.952Z,963.07
2022-10-21T03:03:24.910Z,963.06
2022-10-21T03:04:24.948Z,963.05
2022-10-21T03:05:24.950Z,963.14
2022-10-21T03:06:24.878Z,963.15
2022-10-21T03:07:24.883Z,963.19
2022-10-21T03:08:24.843Z,963.13
2022-10-21T03:09:24.869Z,963.14
2022-10-21T03:10:24.868Z,963.14
2022-10-21T03:11:24.808Z,963.11
2022-10-21T03:12:24.813Z,963.09
2022-10-21T03:13:24.821Z,963.07
2022-10-21T03:14:24.830Z,963.12
2022-10-21T03:15:24.767Z,963.12
2022-10-21T03:16:24.803Z,963.04
2022-10-21T03:17:25.438Z,963.06
2022-10-21T03:18:24.743Z,963.01
2022-10-21T03:19:24.765Z,963.04
2022-10-21T03:20:24.733Z,963.05
2022-10-21T03:21:24.714Z,963.02
2022-10-21T03:22:24.722Z,963.05
2022-10-21T03:23:24.688Z,963.04
2022-10-21T03:24:28.698Z,963.02
2022-10-21T03:25:24.720Z,963.00
2022-10-21T03:26:24.660Z,963.04
2022-10-21T03:27:24.672Z,963.04
2022-10-21T03:28:24.666Z,963.03
2022-10-21T03:29:24.631Z,963.04
2022-10-21T03:30:24.625Z,962.98
2022-10-21T03:31:24.646Z,963.03
2022-10-21T03:32:24.587Z,962.97
2022-10-21T03:33:24.598Z,963.01
2022-10-21T03:34:24.555Z,962.98
2022-10-21T03:35:24.563Z,963.02
2022-10-21T03:36:24.535Z,962.95
2022-10-21T03:37:24.570Z,962.98
2022-10-21T03:38:24.541Z,963.03
2022-10-21T03:39:24.531Z,963.04
2022-10-21T03:40:24.494Z,963.00
2022-10-21T03:41:24.495Z,963.04
2022-10-21T03:42:24.464Z,962.99
2022-10-21T03:43:24.510Z,963.01
2022-10-21T03:44:24.443Z,962.92
2022-10-21T03:45:24.431Z,962.94
2022-10-21T03:46:24.438Z,962.89
2022-10-21T03:47:24.432Z,962.88
2022-10-21T03:48:24.401Z,962.91
2022-10-21T03:49:24.462Z,962.89
2022-10-21T03:50:26.599Z,962.93
2022-10-21T03:51:24.413Z,962.90
2022-10-21T03:52:24.375Z,962.92
2022-10-21T03:53:41.775Z,962.90
2022-10-21T03:54:25.353Z,962.85
2022-10-21T03:55:24.409Z,962.80
2022-10-21T03:56:24.320Z,962.79
2022-10-21T03:57:24.353Z,962.75
2022-10-21T03:58:24.304Z,962.78
2022-10-21T03:59:24.275Z,962.74
2022-10-21T04:00:26.078Z,962.78
2022-10-21T04:01:24.354Z,962.77
2022-10-21T04:02:24.250Z,962.73
2022-10-21T04:03:24.252Z,962.71
2022-10-21T04:04:24.251Z,962.72
2022-10-21T04:05:24.258Z,962.69
2022-10-21T04:06:24.209Z,962.68
2022-10-21T04:07:24.213Z,962.61
2022-10-21T04:08:24.181Z,962.62
2022-10-21T04:09:24.184Z,962.55
2022-10-21T04:10:24.190Z,962.58
2022-10-21T04:11:24.162Z,962.53
2022-10-21T04:12:24.149Z,962.53
2022-10-21T04:13:24.164Z,962.52
2022-10-21T04:14:24.117Z,962.50
2022-10-21T04:15:24.112Z,962.52
2022-10-21T04:16:24.172Z,962.49
2022-10-21T04:17:24.099Z,962.51
2022-10-21T04:18:24.099Z,962.48
2022-10-21T04:19:24.058Z,962.50
2022-10-21T04:20:24.100Z,962.50
2022-10-21T04:22:24.032Z,962.47
2022-10-21T04:23:24.080Z,962.48
2022-10-21T04:24:24.051Z,962.47
2022-10-21T04:25:24.048Z,962.51
2022-10-21T04:26:24.001Z,962.44
2022-10-21T04:27:23.981Z,962.46
2022-10-21T04:28:23.961Z,962.47
2022-10-21T04:29:24.035Z,962.42
2022-10-21T04:30:24.026Z,962.40
2022-10-21T04:31:26.524Z,962.39
2022-10-21T04:32:23.920Z,962.38
2022-10-21T04:33:23.899Z,962.32
2022-10-21T04:34:23.908Z,962.21
2022-10-21T04:35:23.910Z,962.17
2022-10-21T04:36:23.918Z,962.14
2022-10-21T04:37:23.865Z,962.16
2022-10-21T04:38:31.816Z,962.09
2022-10-21T04:39:23.885Z,962.13
2022-10-21T04:40:23.828Z,962.07
2022-10-21T04:41:23.847Z,962.01
2022-10-21T04:42:23.909Z,962.11
2022-10-21T04:43:23.805Z,962.06
2022-10-21T04:44:23.810Z,962.01
2022-10-21T04:45:23.790Z,962.10
2022-10-21T04:46:23.773Z,961.97
2022-10-21T04:47:23.770Z,962.00
2022-10-21T04:48:23.742Z,961.94
2022-10-21T04:49:23.737Z,961.97
2022-10-21T04:50:23.754Z,962.05
2022-10-21T04:51:23.792Z,962.05
2022-10-21T04:52:23.705Z,962.07
2022-10-21T04:53:23.707Z,962.06
2022-10-21T04:54:23.675Z,962.02
2022-10-21T04:55:23.670Z,961.97
2022-10-21T04:56:23.646Z,961.85
2022-10-21T04:57:23.662Z,961.73
2022-10-21T04:58:23.663Z,961.64
2022-10-21T04:59:23.613Z,961.63
2022-10-21T05:00:23.614Z,961.67
2022-10-21T05:01:23.722Z,961.72
2022-10-21T05:02:25.480Z,961.70
2022-10-21T05:03:23.567Z,961.67
2022-10-21T05:04:23.644Z,961.74
2022-10-21T05:05:23.547Z,961.77
2022-10-21T05:06:23.554Z,961.79
2022-10-21T05:07:23.523Z,961.79
2022-10-21T05:08:23.535Z,961.81
2022-10-21T05:09:23.511Z,961.74
2022-10-21T05:10:23.516Z,961.78
2022-10-21T05:11:23.486Z,961.79
2022-10-21T05:12:23.555Z,961.75
2022-10-21T05:13:23.509Z,961.74
2022-10-21T05:14:23.462Z,961.72
2022-10-21T05:15:23.458Z,961.67
2022-10-21T05:16:23.464Z,961.65
2022-10-21T05:17:23.448Z,961.66
2022-10-21T05:18:23.450Z,961.74
2022-10-21T05:19:24.785Z,961.81
2022-10-21T05:20:23.389Z,961.78
2022-10-21T05:21:23.401Z,961.78
2022-10-21T05:22:23.359Z,961.73
2022-10-21T05:23:23.364Z,961.76
2022-10-21T05:24:23.371Z,961.71
2022-10-21T05:25:23.961Z,961.71
2022-10-21T05:26:23.326Z,961.78
2022-10-21T05:27:23.304Z,961.74
2022-10-21T05:28:23.334Z,961.73
2022-10-21T05:29:23.304Z,961.73
2022-10-21T05:30:23.299Z,961.73
2022-10-21T05:31:23.274Z,961.70
2022-10-21T05:32:23.268Z,961.64
2022-10-21T05:33:23.286Z,961.71
2022-10-21T05:34:23.280Z,961.68
2022-10-21T05:35:23.232Z,961.67
2022-10-21T05:36:24.131Z,961.68
2022-10-21T05:37:23.198Z,961.72
2022-10-21T05:38:23.208Z,961.71
2022-10-21T05:39:23.170Z,961.74
2022-10-21T05:40:23.176Z,961.73
2022-10-21T05:41:23.151Z,961.79
2022-10-21T05:42:23.155Z,961.80
2022-10-21T05:43:23.141Z,961.77
2022-10-21T05:44:23.150Z,961.76
2022-10-21T05:45:23.107Z,961.73
2022-10-21T05:46:23.107Z,961.70
2022-10-21T05:47:23.138Z,961.68
2022-10-21T05:48:23.089Z,961.65
2022-10-21T05:49:23.080Z,961.71
2022-10-21T05:50:23.088Z,961.71
2022-10-21T05:51:23.046Z,961.72
2022-10-21T05:52:23.043Z,961.75
2022-10-21T05:53:23.015Z,961.77
2022-10-21T05:54:23.009Z,961.74
2022-10-21T05:55:23.030Z,961.78
2022-10-21T05:56:23.038Z,961.81
2022-10-21T05:57:22.986Z,961.82
2022-10-21T05:58:22.993Z,961.76
2022-10-21T05:59:22.965Z,961.79
2022-10-21T06:00:22.942Z,961.75
2022-10-21T06:01:23.071Z,961.69
2022-10-21T06:02:22.953Z,961.66
2022-10-21T06:03:22.922Z,961.65
2022-10-21T06:04:22.892Z,961.62
2022-10-21T06:05:22.923Z,961.64
2022-10-21T06:06:22.891Z,961.64
2022-10-21T06:07:22.895Z,961.66
2022-10-21T06:08:22.856Z,961.68
2022-10-21T06:09:22.859Z,961.66
2022-10-21T06:10:26.702Z,961.66
2022-10-21T06:11:23.848Z,961.70
2022-10-21T06:12:22.825Z,961.68
2022-10-21T06:13:22.790Z,961.70
2022-10-21T06:14:22.795Z,961.71
2022-10-21T06:15:22.802Z,961.67
2022-10-21T06:16:22.766Z,961.67
2022-10-21T06:17:22.775Z,961.68
2022-10-21T06:18:22.758Z,961.67
2022-10-21T06:19:22.729Z,961.63
2022-10-21T06:20:22.728Z,961.72
2022-10-21T06:21:22.744Z,961.66
2022-10-21T06:22:22.709Z,961.66
2022-10-21T06:23:22.744Z,961.67
2022-10-21T06:24:22.702Z,961.68
2022-10-21T06:25:22.672Z,961.67
2022-10-21T06:26:22.664Z,961.69
2022-10-21T06:27:22.668Z,961.63
2022-10-21T06:28:22.625Z,961.65
2022-10-21T06:29:22.654Z,961.66
2022-10-21T06:30:22.600Z,961.67
2022-10-21T06:31:23.312Z,961.65
2022-10-21T06:32:22.614Z,961.67
2022-10-21T06:33:26.201Z,961.64
2022-10-21T06:34:22.571Z,961.63
2022-10-21T06:35:22.580Z,961.67
2022-10-21T06:36:22.539Z,961.69
2022-10-21T06:37:22.567Z,961.74
2022-10-21T06:38:22.552Z,961.77
2022-10-21T06:39:22.523Z,961.74
2022-10-21T06:40:22.512Z,961.79
2022-10-21T06:41:22.516Z,961.72
2022-10-21T06:42:22.478Z,961.72
2022-10-21T06:44:22.454Z,961.78
2022-10-21T06:45:22.447Z,961.78
2022-10-21T06:46:22.450Z,961.78
2022-10-21T06:47:22.411Z,961.79
2022-10-21T06:48:22.463Z,961.75
2022-10-21T06:49:22.424Z,961.82
2022-10-21T06:50:22.390Z,961.75
2022-10-21T06:51:22.393Z,961.72
2022-10-21T06:52:22.468Z,961.65
2022-10-21T06:53:22.390Z,961.63
2022-10-21T06:54:22.411Z,961.55
2022-10-21T06:55:22.322Z,961.53
2022-10-21T06:56:22.323Z,961.50
2022-10-21T06:57:22.335Z,961.54
2022-10-21T06:58:22.312Z,961.53
2022-10-21T06:59:22.292Z,961.51
2022-10-21T07:00:22.362Z,961.55
2022-10-21T07:01:34.290Z,961.51
2022-10-21T07:02:23.280Z,961.48
2022-10-21T07:03:22.258Z,961.46
2022-10-21T07:04:22.221Z,961.35
2022-10-21T07:05:22.235Z,961.32
2022-10-21T07:06:22.327Z,961.26
2022-10-21T07:07:22.229Z,961.17
2022-10-21T07:08:25.796Z,961.12
2022-10-21T07:09:23.294Z,961.10
2022-10-21T07:10:22.160Z,961.06
2022-10-21T07:11:22.157Z,961.10
2022-10-21T07:12:22.276Z,961.18
2022-10-21T07:13:25.619Z,961.23
2022-10-21T07:14:22.156Z,961.31
2022-10-21T07:15:22.118Z,961.36
2022-10-21T07:16:22.099Z,961.40
2022-10-21T07:17:22.108Z,961.41
2022-10-21T07:18:22.114Z,961.38
2022-10-21T07:19:22.070Z,961.36
2022-10-21T07:20:22.087Z,961.34
2022-10-21T07:21:22.035Z,961.29
2022-10-21T07:22:22.039Z,961.30
2022-10-21T07:23:22.046Z,961.25
2022-10-21T07:24:22.837Z,961.25
2022-10-21T07:25:22.034Z,961.26
2022-10-21T07:26:22.018Z,961.19
2022-10-21T07:27:21.972Z,961.18
2022-10-21T07:28:21.978Z,961.18
2022-10-21T07:29:21.985Z,961.20
2022-10-21T07:30:21.949Z,961.24
2022-10-21T07:31:21.959Z,961.20
2022-10-21T07:32:21.941Z,961.19
2022-10-21T07:33:21.910Z,961.18
2022-10-21T07:34:21.907Z,961.15
2022-10-21T07:35:21.911Z,961.12
2022-10-21T07:36:21.878Z,961.10
2022-10-21T07:37:21.898Z,961.06
2022-10-21T07:38:22.851Z,961.05
2022-10-21T07:39:21.850Z,961.07
2022-10-21T07:40:21.824Z,961.15
2022-10-21T07:41:21.838Z,961.12
2022-10-21T07:42:21.815Z,961.13
2022-10-21T07:43:21.820Z,961.15
2022-10-21T07:44:21.783Z,961.09
2022-10-21T07:45:21.779Z,961.07
2022-10-21T07:46:21.759Z,961.05
2022-10-21T07:47:21.759Z,961.03
2022-10-21T07:48:21.757Z,961.04
2022-10-21T07:49:21.761Z,961.03
2022-10-21T07:50:21.841Z,961.03
2022-10-21T07:51:23.659Z,961.01
2022-10-21T07:52:21.693Z,961.03
2022-10-21T07:53:21.699Z,961.04
2022-10-21T07:54:21.673Z,961.02
2022-10-21T07:55:21.667Z,960.98
2022-10-21T07:56:21.661Z,960.95
2022-10-21T07:57:21.652Z,960.97
2022-10-21T07:58:21.631Z,960.92
2022-10-21T07:59:21.626Z,960.99
2022-10-21T08:00:21.671Z,960.96
2022-10-21T08:01:21.731Z,960.91
2022-10-21T08:02:21.613Z,960.93
2022-10-21T08:03:21.568Z,960.88
2022-10-21T08:04:21.572Z,960.94
2022-10-21T08:05:21.552Z,960.89
2022-10-21T08:06:21.548Z,960.93
2022-10-21T08:07:21.551Z,960.96
2022-10-21T08:08:21.539Z,960.98
2022-10-21T08:09:21.501Z,961.03
2022-10-21T08:10:21.620Z,960.99
2022-10-21T08:11:21.515Z,961.01
2022-10-21T08:12:21.512Z,960.90
2022-10-21T08:13:21.504Z,960.87
2022-10-21T08:14:21.468Z,960.86
2022-10-21T08:15:21.442Z,960.91
2022-10-21T08:16:21.437Z,960.93
2022-10-21T08:17:21.442Z,960.96
2022-10-21T08:18:21.503Z,960.94
2022-10-21T08:19:21.474Z,960.98
2022-10-21T08:20:21.377Z,960.95
2022-10-21T08:21:21.381Z,960.98
2022-10-21T08:22:21.382Z,960.98
2022-10-21T08:23:21.358Z,960.99
2022-10-21T08:24:21.345Z,961.00
2022-10-21T08:25:21.352Z,960.98
2022-10-21T08:26:21.312Z,960.98
2022-10-21T08:27:21.310Z,961.03
2022-10-21T08:28:21.436Z,961.01
2022-10-21T08:29:21.299Z,961.02
2022-10-21T08:30:21.292Z,961.02
2022-10-21T08:31:21.281Z,961.02
2022-10-21T08:32:21.253Z,961.03
2022-10-21T08:33:21.244Z,960.99
2022-10-21T08:34:21.237Z,960.98
2022-10-21T08:35:21.217Z,961.10
2022-10-21T08:36:21.212Z,961.06
2022-10-21T08:37:24.886Z,961.12
2022-10-21T08:38:21.197Z,961.10
2022-10-21T08:39:21.203Z,961.11
2022-10-21T08:40:21.191Z,961.07
2022-10-21T08:41:21.161Z,961.02
2022-10-21T08:42:21.162Z,960.95
2022-10-21T08:43:21.133Z,960.89
2022-10-21T08:44:21.131Z,960.86
2022-10-21T08:45:21.126Z,960.85
2022-10-21T08:46:21.808Z,960.92
2022-10-21T08:47:21.094Z,960.95
2022-10-21T08:48:21.071Z,960.92
2022-10-21T08:49:24.012Z,960.96
2022-10-21T08:50:22.041Z,960.94
2022-10-21T08:51:21.043Z,960.98
2022-10-21T08:52:21.031Z,960.96
2022-10-21T08:53:21.110Z,960.93
2022-10-21T08:54:21.029Z,960.93
2022-10-21T08:55:21.009Z,960.97
2022-10-21T08:56:21.019Z,960.95
2022-10-21T08:57:20.965Z,960.96
2022-10-21T08:58:20.971Z,960.97
2022-10-21T08:59:20.966Z,961.00
2022-10-21T09:00:20.947Z,961.00
2022-10-21T09:01:20.957Z,960.98
2022-10-21T09:02:20.951Z,960.96
2022-10-21T09:03:20.981Z,961.03
2022-10-21T09:04:20.903Z,961.04
2022-10-21T09:05:20.940Z,961.02
2022-10-21T09:06:20.872Z,961.01
2022-10-21T09:07:20.861Z,961.04
2022-10-21T09:08:20.859Z,961.06
2022-10-21T09:09:20.879Z,961.06
2022-10-21T09:10:20.834Z,961.09
2022-10-21T09:11:20.859Z,961.12
2022-10-21T09:12:21.297Z,961.18
2022-10-21T09:13:20.807Z,961.16
2022-10-21T09:14:20.806Z,961.16
2022-10-21T09:15:20.778Z,961.19
2022-10-21T09:16:20.750Z,961.23
2022-10-21T09:17:20.768Z,961.23
2022-10-21T09:18:20.731Z,961.26
2022-10-21T09:19:20.731Z,961.25
2022-10-21T09:20:20.717Z,961.28
2022-10-21T09:21:20.705Z,961.28
2022-10-21T09:22:34.898Z,961.30
2022-10-21T09:23:21.727Z,961.31
2022-10-21T09:24:20.688Z,961.35
2022-10-21T09:25:20.671Z,961.33
2022-10-21T09:26:20.652Z,961.34
2022-10-21T09:27:26.999Z,961.36
2022-10-21T09:28:21.643Z,961.45
2022-10-21T09:29:20.624Z,961.46
2022-10-21T09:30:20.605Z,961.53
2022-10-21T09:31:20.587Z,961.53
2022-10-21T09:32:20.661Z,961.61
2022-10-21T09:33:20.590Z,961.64
2022-10-21T09:34:20.559Z,961.69
2022-10-21T09:35:20.555Z,961.71
2022-10-21T09:36:20.558Z,961.76
2022-10-21T09:37:20.523Z,961.77
2022-10-21T09:38:20.520Z,961.78
2022-10-21T09:39:20.497Z,961.74
2022-10-21T09:40:20.495Z,961.71
2022-10-21T09:41:23.549Z,961.77
2022-10-21T09:42:42.271Z,961.73
2022-10-21T09:43:21.458Z,961.75
2022-10-21T09:44:20.455Z,961.75
2022-10-21T09:45:20.463Z,961.78
2022-10-21T09:46:20.437Z,961.76
2022-10-21T09:47:20.410Z,961.80
2022-10-21T09:48:20.405Z,961.82
2022-10-21T09:49:47.854Z,961.89
2022-10-21T09:50:22.397Z,961.93
2022-10-21T09:51:20.369Z,961.98
2022-10-21T09:52:20.351Z,962.02
2022-10-21T09:53:22.723Z,962.06
2022-10-21T09:54:21.346Z,962.07
2022-10-21T09:55:20.328Z,962.14
2022-10-21T09:56:20.304Z,962.18
2022-10-21T09:57:20.299Z,962.16
2022-10-21T09:58:20.298Z,962.19
2022-10-21T09:59:20.300Z,962.23
2022-10-21T10:00:20.273Z,962.25
2022-10-21T10:01:20.273Z,962.29
2022-10-21T10:02:20.278Z,962.26
2022-10-21T10:03:20.233Z,962.31
2022-10-21T10:04:20.255Z,962.38
2022-10-21T10:05:20.238Z,962.39
2022-10-21T10:06:20.205Z,962.45
2022-10-21T10:07:20.184Z,962.49
2022-10-21T10:08:20.180Z,962.55
2022-10-21T10:09:20.180Z,962.52
2022-10-21T10:10:20.169Z,962.58
2022-10-21T10:11:20.145Z,962.56
2022-10-21T10:12:20.145Z,962.62
2022-10-21T10:13:20.120Z,962.67
2022-10-21T10:14:20.119Z,962.70
2022-10-21T10:15:20.095Z,962.72
2022-10-21T10:16:20.120Z,962.77
2022-10-21T10:17:20.085Z,962.64
2022-10-21T10:18:20.088Z,962.65
2022-10-21T10:19:20.050Z,962.67
2022-10-21T10:20:20.067Z,962.62
2022-10-21T10:21:20.056Z,962.65
2022-10-21T10:22:20.017Z,962.62
2022-10-21T10:23:20.012Z,962.67
2022-10-21T10:24:19.993Z,962.64
2022-10-21T10:25:19.998Z,962.65
2022-10-21T10:26:19.998Z,962.69
2022-10-21T10:27:19.971Z,962.61
2022-10-21T10:28:19.961Z,962.64
2022-10-21T10:29:19.970Z,962.65
2022-10-21T10:30:19.928Z,962.65
2022-10-21T10:31:19.930Z,962.73
2022-10-21T10:32:19.909Z,962.70
2022-10-21T10:33:19.915Z,962.71
2022-10-21T10:34:19.900Z,962.71
2022-10-21T10:35:19.895Z,962.72
2022-10-21T10:36:19.870Z,962.71
2022-10-21T10:37:19.976Z,962.71
2022-10-21T10:38:19.859Z,962.72
2022-10-21T10:39:19.853Z,962.73
2022-10-21T10:40:19.824Z,962.75
2022-10-21T10:41:19.807Z,962.78
2022-10-21T10:42:19.803Z,962.81
2022-10-21T10:43:19.786Z,962.79
2022-10-21T10:44:19.801Z,962.72
2022-10-21T10:45:19.772Z,962.71
2022-10-21T10:46:19.760Z,962.60
2022-10-21T10:47:19.736Z,962.61
2022-10-21T10:48:19.740Z,962.63
2022-10-21T10:49:19.746Z,962.57
2022-10-21T10:50:19.712Z,962.49
2022-10-21T10:51:19.706Z,962.47
2022-10-21T10:52:19.700Z,962.45
2022-10-21T10:53:19.799Z,962.43
2022-10-21T10:54:19.683Z,962.45
2022-10-21T10:55:19.673Z,962.37
2022-10-21T10:56:19.639Z,962.38
2022-10-21T10:57:19.647Z,962.26
2022-10-21T10:58:21.933Z,962.26
2022-10-21T10:59:19.611Z,962.24
2022-10-21T11:00:19.624Z,962.16
2022-10-21T11:01:19.642Z,962.10
2022-10-21T11:02:19.580Z,962.02
2022-10-21T11:03:23.933Z,961.91
2022-10-21T11:04:20.551Z,961.87
2022-10-21T11:05:19.545Z,961.98
2022-10-21T11:06:19.540Z,962.13
2022-10-21T11:07:19.511Z,962.26
2022-10-21T11:08:19.522Z,962.37
2022-10-21T11:09:22.626Z,962.35
2022-10-21T11:10:19.482Z,962.28
2022-10-21T11:11:19.491Z,962.19
2022-10-21T11:12:19.500Z,962.03
2022-10-21T11:13:19.453Z,962.01
2022-10-21T11:14:21.924Z,962.02
2022-10-21T11:15:19.424Z,962.08
2022-10-21T11:16:19.435Z,962.17
2022-10-21T11:17:19.402Z,962.22
2022-10-21T11:18:25.991Z,962.15
2022-10-21T11:19:20.374Z,962.15
2022-10-21T11:20:19.383Z,962.13
2022-10-21T11:21:19.413Z,962.15
2022-10-21T11:22:19.349Z,962.12
2022-10-21T11:23:19.339Z,962.22
2022-10-21T11:24:19.857Z,962.29
2022-10-21T11:25:19.437Z,962.36
2022-10-21T11:26:19.322Z,962.56
2022-10-21T11:27:19.386Z,962.68
2022-10-21T11:28:19.290Z,962.66
2022-10-21T11:29:19.291Z,962.66
2022-10-21T11:30:19.367Z,962.57
2022-10-21T11:31:19.258Z,962.58
2022-10-21T11:32:19.239Z,962.62
2022-10-21T11:33:19.236Z,962.69
2022-10-21T11:34:19.220Z,962.71
2022-10-21T11:35:19.200Z,962.87
2022-10-21T11:36:19.207Z,962.92
2022-10-21T11:37:19.172Z,962.86
2022-10-21T11:38:19.163Z,962.80
2022-10-21T11:39:21.504Z,962.79
2022-10-21T11:40:19.151Z,962.93
2022-10-21T11:41:20.814Z,963.23
2022-10-21T11:42:19.144Z,963.13
2022-10-21T11:43:19.141Z,963.11
2022-10-21T11:44:19.106Z,963.07
2022-10-21T11:45:19.152Z,962.99
2022-10-21T11:46:19.071Z,963.01
2022-10-21T11:47:19.123Z,963.02
2022-10-21T11:48:19.078Z,962.99
2022-10-21T11:49:19.037Z,963.08
2022-10-21T11:51:19.050Z,963.07
2022-10-21T11:52:19.008Z,963.09
2022-10-21T11:53:18.998Z,963.08
2022-10-21T11:54:18.980Z,963.12
2022-10-21T11:55:18.984Z,963.06
2022-10-21T11:56:18.985Z,963.11
2022-10-21T11:57:19.077Z,963.06
2022-10-21T11:58:18.946Z,963.02
2022-10-21T11:59:19.046Z,962.99
2022-10-21T12:00:18.913Z,963.04
2022-10-21T12:01:18.915Z,962.92
2022-10-21T12:02:18.946Z,962.98
2022-10-21T12:03:18.877Z,962.99
2022-10-21T12:04:18.884Z,963.02
2022-10-21T12:05:18.866Z,962.92
2022-10-21T12:06:18.863Z,962.96
2022-10-21T12:07:18.843Z,962.89
2022-10-21T12:08:18.873Z,962.90
2022-10-21T12:09:18.823Z,962.85
2022-10-21T12:10:18.816Z,962.83
2022-10-21T12:11:18.788Z,962.86
2022-10-21T12:12:18.788Z,962.88
2022-10-21T12:13:18.985Z,962.91
2022-10-21T12:14:18.773Z,962.92
2022-10-21T12:15:18.755Z,962.90
2022-10-21T12:16:18.753Z,962.89
2022-10-21T12:17:18.722Z,962.86
2022-10-21T12:18:18.728Z,962.86
2022-10-21T12:19:18.723Z,962.84
2022-10-21T12:20:22.847Z,962.85
2022-10-21T12:21:19.681Z,962.80
2022-10-21T12:22:18.665Z,962.84
2022-10-21T12:23:18.668Z,962.87
2022-10-21T12:24:18.654Z,962.86
2022-10-21T12:25:18.644Z,962.88
2022-10-21T12:26:18.628Z,962.85
2022-10-21T12:27:18.626Z,962.90
2022-10-21T12:28:18.608Z,962.88
2022-10-21T12:29:18.715Z,962.88
2022-10-21T12:30:22.148Z,962.84
2022-10-21T12:31:19.573Z,962.86
2022-10-21T12:32:18.568Z,962.86
2022-10-21T12:33:18.540Z,962.88